Time;durP1;ratioP1;P1;durP2;ratioP2;P2;SDS_P1;SDS_P2;PMS_P1;PMS_P2;Temp;Humidity;BMP_temperature;BMP_pressure;BME280_temperature;BME280_humidity;BME280_pressure;Samples;Min_cycle;Max_cycle;Signal;HPM_P1;HPM_P2
2022/05/12 00:02:14;;;;;;;;;3.33;3.33;;;;;21.42;45.91;98144.13;4895800;28;104065;-83
2022/05/12 00:04:41;;;;;;;;;5.00;4.00;;;;;21.43;45.91;98139.47;4882706;28;103811;-83
2022/05/12 00:07:08;;;;;;;;;5.00;3.33;;;;;21.43;45.83;98139.47;4885455;28;102124;-83
2022/05/12 00:09:36;;;;;;;;;2.67;2.67;;;;;21.41;45.63;98136.97;4878601;28;102523;-83
2022/05/12 00:12:04;;;;;;;;;3.33;3.33;;;;;21.42;46.13;98135.06;4894933;28;104394;-83
2022/05/12 00:14:46;;;;;;;;;3.67;3.67;;;;;21.41;45.62;98127.91;4890527;28;103742;-83
2022/05/12 00:17:13;;;;;;;;;3.67;3.00;;;;;21.41;45.75;98130.66;4892470;28;103844;-83
2022/05/12 00:19:41;;;;;;;;;4.00;4.00;;;;;21.40;45.47;98129.00;4878704;28;103860;-83
2022/05/12 00:22:08;;;;;;;;;3.00;3.00;;;;;21.40;45.47;98124.31;4884286;28;104111;-83
2022/05/12 00:24:35;;;;;;;;;3.00;2.67;;;;;21.39;45.95;98128.16;4892934;28;102424;-83
2022/05/12 00:27:03;;;;;;;;;4.00;4.00;;;;;21.40;45.32;98126.25;4888839;28;102095;-83
2022/05/12 00:29:30;;;;;;;;;2.67;2.67;;;;;21.39;45.76;98119.91;4880641;28;102208;-83
2022/05/12 00:31:57;;;;;;;;;4.33;4.33;;;;;21.40;45.44;98120.75;4878495;28;104118;-83
2022/05/12 00:34:25;;;;;;;;;3.33;3.00;;;;;21.39;46.18;98119.13;4887555;28;102007;-83
2022/05/12 00:36:52;;;;;;;;;4.33;4.00;;;;;21.39;45.78;98121.88;4876758;28;102334;-83
2022/05/12 00:39:19;;;;;;;;;4.00;3.67;;;;;21.39;45.99;98130.13;4888382;28;102193;-83
2022/05/12 00:41:46;;;;;;;;;4.00;4.00;;;;;21.38;45.81;98123.78;4886025;28;104096;-83
2022/05/12 00:44:13;;;;;;;;;3.67;3.67;;;;;21.38;45.69;98128.47;4888492;28;102649;-83
2022/05/12 00:46:41;;;;;;;;;4.67;4.67;;;;;21.38;45.81;98125.72;4891924;28;102352;-83
2022/05/12 00:49:19;;;;;;;;;3.67;3.67;;;;;21.36;45.81;98118.56;4882006;28;108681;-83
2022/05/12 00:51:48;;;;;;;;;3.67;3.33;;;;;21.38;45.99;98120.22;4891631;28;104329;-83
2022/05/12 00:54:21;;;;;;;;;4.00;4.00;;;;;21.38;45.78;98117.47;4877289;28;102530;-83
2022/05/12 00:56:49;;;;;;;;;3.00;3.00;;;;;21.36;46.21;98113.06;4883287;28;102233;-83
2022/05/12 00:59:23;;;;;;;;;4.33;3.33;;;;;21.36;45.87;98113.06;4873058;28;103472;-83
2022/05/12 01:01:50;;;;;;;;;3.33;3.33;;;;;21.36;45.62;98112.25;4861045;28;103830;-83
2022/05/12 01:04:19;;;;;;;;;4.00;4.00;;;;;21.36;46.09;98102.06;4794484;28;102254;-83
2022/05/12 01:06:46;;;;;;;;;4.00;4.00;;;;;21.36;45.91;98101.25;4877211;28;103777;-83
2022/05/12 01:09:13;;;;;;;;;5.33;4.33;;;;;21.35;45.75;98089.41;4846478;28;102506;-83
2022/05/12 01:11:40;;;;;;;;;4.33;4.00;;;;;21.35;45.94;98100.41;4859025;28;104077;-83
2022/05/12 01:14:08;;;;;;;;;4.33;3.67;;;;;21.35;45.64;98099.59;4810952;28;102550;-83
2022/05/12 01:16:42;;;;;;;;;3.67;3.67;;;;;21.34;46.19;98101.50;4870322;28;108384;-83
2022/05/12 01:19:14;;;;;;;;;4.67;4.67;;;;;21.33;45.58;98099.88;4887162;28;102890;-83
2022/05/12 01:21:42;;;;;;;;;3.67;3.00;;;;;21.34;45.57;98097.97;4877534;28;104029;-83
2022/05/12 01:24:09;;;;;;;;;3.00;3.00;;;;;21.33;45.85;98091.63;4884669;28;102473;-83
2022/05/12 01:26:37;;;;;;;;;2.67;2.67;;;;;21.32;45.56;98094.66;4874743;28;104017;-83
2022/05/12 01:29:06;;;;;;;;;3.67;3.67;;;;;21.31;46.08;98091.09;4889331;28;101375;-83
2022/05/12 01:31:34;;;;;;;;;3.67;3.67;;;;;21.33;46.07;98088.88;4881153;28;104350;-83
2022/05/12 01:34:02;;;;;;;;;5.00;5.00;;;;;21.33;46.02;98086.13;4886479;28;102681;-83
2022/05/12 01:36:29;;;;;;;;;2.67;2.67;;;;;21.32;46.01;98094.66;4889749;28;102314;-83
2022/05/12 01:38:56;;;;;;;;;3.00;3.00;;;;;21.32;45.80;98087.22;4880644;28;102458;-83
2022/05/12 01:41:23;;;;;;;;;4.33;4.00;;;;;21.31;45.39;98088.34;4862795;28;102643;-84
2022/05/12 01:43:50;;;;;;;;;5.00;4.00;;;;;21.31;45.78;98088.34;4858366;28;103535;-83
2022/05/12 01:46:20;;;;;;;;;3.33;3.33;;;;;21.31;45.89;98088.34;4869373;28;103008;-83
2022/05/12 01:48:47;;;;;;;;;2.67;2.67;;;;;21.31;46.15;98082.00;4890590;28;102555;-83
2022/05/12 01:51:14;;;;;;;;;4.00;2.67;;;;;21.30;45.89;98081.19;4867195;28;104343;-83
2022/05/12 01:53:43;;;;;;;;;3.00;3.00;;;;;21.30;45.71;98083.94;4883240;28;102421;-83
2022/05/12 01:56:11;;;;;;;;;3.67;3.67;;;;;21.30;45.99;98080.34;4887764;28;102486;-83
2022/05/12 01:58:38;;;;;;;;;4.67;3.33;;;;;21.29;45.99;98082.31;4881780;28;107339;-82
2022/05/12 02:01:06;;;;;;;;;4.67;3.67;;;;;21.30;45.88;98083.94;4886836;28;104143;-82
2022/05/12 02:03:34;;;;;;;;;4.33;4.33;;;;;21.29;45.54;98076.81;4884751;28;102284;-83
2022/05/12 02:06:01;;;;;;;;;4.00;4.00;;;;;21.30;45.68;98086.69;4884063;28;102251;-83
2022/05/12 02:08:29;;;;;;;;;3.00;3.00;;;;;21.29;45.50;98079.56;4882200;28;102251;-83
2022/05/12 02:10:56;;;;;;;;;3.67;3.67;;;;;21.30;45.96;98080.34;4866339;28;104104;-83
2022/05/12 02:13:25;;;;;;;;;2.67;2.67;;;;;21.30;45.73;98077.59;4887910;28;102356;-83
2022/05/12 02:15:56;;;;;;;;;3.67;3.33;;;;;21.30;45.68;98083.09;4887731;28;102545;-83
2022/05/12 02:18:24;;;;;;;;;2.67;2.67;;;;;21.28;45.56;98075.16;4875034;28;102249;-83
2022/05/12 02:20:51;;;;;;;;;3.67;3.67;;;;;21.27;45.94;98076.25;4879154;28;104014;-83
2022/05/12 02:23:18;;;;;;;;;3.00;3.00;;;;;21.27;45.63;98076.25;4881501;28;102863;-83
2022/05/12 02:25:45;;;;;;;;;3.00;3.00;;;;;21.27;45.57;98081.75;4877179;28;102299;-83
2022/05/12 02:28:12;;;;;;;;;4.00;3.33;;;;;21.27;45.70;98081.75;4891727;28;102236;-83
2022/05/12 02:30:39;;;;;;;;;5.67;4.67;;;;;21.28;45.76;98075.16;4883949;28;104040;-83
2022/05/12 02:33:07;;;;;;;;;4.00;4.00;;;;;21.28;45.97;98077.91;4893250;28;102194;-83
2022/05/12 02:35:35;;;;;;;;;3.67;3.67;;;;;21.28;46.11;98077.91;4888980;28;102438;-83
2022/05/12 02:38:03;;;;;;;;;3.00;3.00;;;;;21.27;45.44;98079.00;4889680;28;103302;-83
2022/05/12 02:40:31;;;;;;;;;3.67;3.67;;;;;21.27;45.42;98087.25;4892928;28;108926;-83
2022/05/12 02:42:58;;;;;;;;;4.67;4.67;;;;;21.27;45.85;98070.75;4878714;28;102434;-83
2022/05/12 02:45:26;;;;;;;;;4.00;4.00;;;;;21.27;45.87;98081.75;4890070;28;102681;-83
2022/05/12 02:47:54;;;;;;;;;4.00;3.33;;;;;21.27;45.83;98076.25;4892050;28;102411;-83
2022/05/12 02:50:21;;;;;;;;;5.67;3.67;;;;;21.26;45.82;98074.59;4886696;28;104084;-83
2022/05/12 02:52:48;;;;;;;;;3.00;3.00;;;;;21.26;45.83;98068.28;4887143;28;102484;-83
2022/05/12 02:55:15;;;;;;;;;3.00;3.00;;;;;21.26;45.97;98073.78;4887440;28;103015;-83
2022/05/12 02:57:43;;;;;;;;;4.00;3.00;;;;;21.26;46.08;98071.03;4894144;28;102858;-83
2022/05/12 03:00:13;;;;;;;;;3.33;3.00;;;;;21.26;45.46;98074.59;4875012;28;104491;-83
2022/05/12 03:02:40;;;;;;;;;4.00;4.00;;;;;21.27;45.91;98072.69;4891733;28;102375;-82
2022/05/12 03:05:08;;;;;;;;;3.00;3.00;;;;;21.26;45.65;98074.59;4874500;28;102322;-82
2022/05/12 03:07:35;;;;;;;;;3.33;3.33;;;;;21.28;45.41;98071.59;4912521;28;102609;-83
2022/05/12 03:10:03;;;;;;;;;4.00;3.00;;;;;21.27;45.95;98079.00;4891110;28;108730;-83
2022/05/12 03:12:32;;;;;;;;;3.67;3.67;;;;;21.28;45.46;98077.91;4896274;28;103267;-83
2022/05/12 03:15:00;;;;;;;;;3.67;3.67;;;;;21.28;45.83;98082.59;4886875;28;102234;-83
2022/05/12 03:17:27;;;;;;;;;3.00;3.00;;;;;21.28;45.96;98071.59;4891477;28;102242;-83
2022/05/12 03:19:55;;;;;;;;;4.00;3.67;;;;;21.29;45.47;98076.00;4882220;28;104060;-83
2022/05/12 03:22:22;;;;;;;;;4.33;3.00;;;;;21.29;45.41;98076.81;4890685;28;102214;-83
2022/05/12 03:24:49;;;;;;;;;2.67;2.67;;;;;21.26;45.58;98074.59;4886481;28;102505;-83
2022/05/12 03:27:16;;;;;;;;;4.67;4.33;;;;;21.28;45.50;98080.66;4879612;28;102607;-83
2022/05/12 03:29:43;;;;;;;;;4.00;4.00;;;;;21.28;45.46;98077.91;4893477;28;104306;-83
2022/05/12 03:32:12;;;;;;;;;3.33;3.33;;;;;21.27;45.55;98070.75;4893933;28;103829;-83
2022/05/12 03:34:39;;;;;;;;;2.67;2.67;;;;;21.28;45.97;98069.66;4886709;28;103466;-82
2022/05/12 03:37:07;;;;;;;;;4.33;3.67;;;;;21.27;45.44;98065.25;4898695;28;102391;-83
2022/05/12 03:39:42;;;;;;;;;5.33;4.00;;;;;21.27;45.33;98070.75;4886077;28;108714;-82
2022/05/12 03:42:14;;;;;;;;;2.67;2.67;;;;;21.25;45.57;98080.41;4887988;28;102181;-83
2022/05/12 03:44:53;;;;;;;;;3.00;2.67;;;;;21.26;45.93;98071.03;4891380;28;104702;-83
2022/05/12 03:47:28;;;;;;;;;4.67;3.00;;;;;21.26;45.76;98079.28;4896886;28;103753;-83
2022/05/12 03:50:01;;;;;;;;;2.67;2.67;;;;;21.25;45.95;98077.66;4877163;28;103089;-81
2022/05/12 03:52:28;;;;;;;;;4.00;4.00;;;;;21.25;45.35;98080.41;4887569;28;102225;-81
2022/05/12 03:54:55;;;;;;;;;5.00;5.00;;;;;21.25;45.76;98081.19;4878705;28;102267;-81
2022/05/12 03:57:22;;;;;;;;;3.67;3.67;;;;;21.24;46.09;98076.84;4891249;28;102689;-81
2022/05/12 03:59:50;;;;;;;;;4.00;4.00;;;;;21.24;46.06;98082.34;4891337;28;104050;-81
2022/05/12 04:02:18;;;;;;;;;2.67;2.67;;;;;21.24;45.61;98076.00;4887915;28;102194;-81
2022/05/12 04:04:46;;;;;;;;;3.67;3.67;;;;;21.23;45.72;98071.59;4880587;28;102369;-81
2022/05/12 04:07:15;;;;;;;;;2.67;2.67;;;;;21.23;45.72;98068.84;4898166;28;102567;-81
2022/05/12 04:09:42;;;;;;;;;3.00;3.00;;;;;21.23;45.59;98068.84;4889312;28;103900;-80
2022/05/12 04:12:09;;;;;;;;;3.00;3.00;;;;;21.22;45.70;98075.44;4889019;28;102180;-80
2022/05/12 04:14:37;;;;;;;;;3.67;3.67;;;;;21.22;45.75;98068.03;4892847;28;103370;-80
2022/05/12 04:17:08;;;;;;;;;3.00;3.00;;;;;21.21;45.74;98077.38;4888931;28;102387;-81
2022/05/12 04:19:35;;;;;;;;;3.67;3.67;;;;;21.21;45.95;98076.56;4888512;28;109246;-81
2022/05/12 04:22:03;;;;;;;;;4.00;3.33;;;;;21.20;46.22;98077.69;4887322;28;102259;-81
2022/05/12 04:24:31;;;;;;;;;2.67;2.67;;;;;21.20;45.93;98069.44;4887968;28;102190;-81
2022/05/12 04:26:58;;;;;;;;;2.67;2.67;;;;;21.19;46.65;98068.59;4897941;28;102250;-81
2022/05/12 04:29:25;;;;;;;;;3.00;3.00;;;;;21.18;46.26;98072.44;4879566;28;105677;-81
2022/05/12 04:31:52;;;;;;;;;2.67;2.67;;;;;21.19;46.16;98073.28;4894020;28;102201;-81
2022/05/12 04:37:04;;;;;;;;;3.00;2.00;;;;;21.19;46.00;98074.09;4887333;28;102534;-81
2022/05/12 04:39:32;;;;;;;;;2.67;2.67;;;;;21.16;46.19;98080.19;4885443;28;104207;-81
2022/05/12 04:42:04;;;;;;;;;2.33;2.33;;;;;21.16;46.09;98069.19;4889933;28;103137;-81
2022/05/12 04:44:35;;;;;;;;;3.00;3.00;;;;;21.19;46.63;98073.28;4893022;28;103609;-81
2022/05/12 04:47:02;;;;;;;;;3.00;3.00;;;;;21.18;46.65;98083.44;4886830;28;102726;-81
2022/05/12 04:49:29;;;;;;;;;3.67;3.67;;;;;21.19;46.23;98084.28;4876960;28;104102;-81
2022/05/12 04:51:57;;;;;;;;;4.67;4.33;;;;;21.18;46.26;98083.44;4892515;28;102319;-81
2022/05/12 04:54:24;;;;;;;;;3.00;3.00;;;;;21.18;46.42;98088.13;4879686;28;105095;-81
2022/05/12 04:56:51;;;;;;;;;2.00;2.00;;;;;21.18;46.11;98094.44;4897548;28;102142;-81
2022/05/12 04:59:18;;;;;;;;;3.00;3.00;;;;;21.17;46.41;98084.53;4895491;28;104026;-81
2022/05/12 05:01:45;;;;;;;;;4.00;3.00;;;;;21.19;46.22;98096.09;4897216;28;102117;-81
2022/05/12 05:04:12;;;;;;;;;4.00;4.00;;;;;21.18;46.26;98099.94;4889237;28;102165;-81
2022/05/12 05:06:39;;;;;;;;;2.67;2.67;;;;;21.18;46.27;98088.94;4895047;28;104148;-80
2022/05/12 05:09:06;;;;;;;;;4.00;4.00;;;;;21.19;46.79;98093.34;4891686;28;104956;-81
2022/05/12 05:11:37;;;;;;;;;3.67;3.67;;;;;21.20;46.41;98096.94;4892057;28;102287;-81
2022/05/12 05:14:05;;;;;;;;;4.00;3.67;;;;;21.20;46.14;98097.75;4886849;28;102170;-81
2022/05/12 05:16:32;;;;;;;;;3.00;3.00;;;;;21.20;46.91;98100.50;4889579;28;102251;-81
2022/05/12 05:18:59;;;;;;;;;3.00;3.00;;;;;21.19;46.28;98096.09;4883492;28;103935;-81
2022/05/12 05:21:26;;;;;;;;;2.67;2.67;;;;;21.20;46.66;98100.50;4891550;28;102002;-81
2022/05/12 05:23:53;;;;;;;;;3.00;3.00;;;;;21.20;46.56;98097.75;4889774;28;102171;-81
2022/05/12 05:26:20;;;;;;;;;3.33;3.00;;;;;21.21;46.47;98101.28;4886307;28;103865;-81
2022/05/12 05:28:47;;;;;;;;;2.67;2.67;;;;;21.20;46.49;98103.25;4879482;28;103605;-81
2022/05/12 05:31:14;;;;;;;;;3.67;2.67;;;;;21.20;46.25;98097.75;4877354;28;102225;-81
2022/05/12 05:33:42;;;;;;;;;2.67;2.67;;;;;21.21;46.32;98101.28;4885518;28;102107;-81
2022/05/12 05:36:09;;;;;;;;;3.33;2.67;;;;;21.22;46.34;98081.78;4895898;28;102275;-81
2022/05/12 05:38:36;;;;;;;;;3.67;1.67;;;;;21.22;46.16;98081.78;4889961;28;108905;-81
2022/05/12 05:41:03;;;;;;;;;3.67;2.67;;;;;21.22;46.39;98084.53;4888043;28;102262;-81
2022/05/12 05:43:30;;;;;;;;;4.00;4.00;;;;;21.22;46.25;98084.53;4885045;28;102428;-81
2022/05/12 05:45:56;;;;;;;;;4.00;4.00;;;;;21.22;46.32;98090.03;4887989;28;102340;-81
2022/05/12 05:48:24;;;;;;;;;3.00;3.00;;;;;21.18;46.28;98086.19;4884416;28;104233;-81
2022/05/12 05:53:38;;;;;;;;;3.00;3.00;;;;;21.23;46.11;98096.34;4882960;28;102391;-81
2022/05/12 05:56:06;;;;;;;;;2.33;2.33;;;;;21.22;46.39;98095.53;4884654;28;102101;-81
2022/05/12 05:58:33;;;;;;;;;3.67;3.67;;;;;21.23;46.73;98091.69;4890705;28;104045;-82
2022/05/12 06:01:00;;;;;;;;;2.33;2.33;;;;;21.23;46.72;98086.19;4884287;28;102260;-81
2022/05/12 06:03:27;;;;;;;;;2.67;2.67;;;;;21.23;46.32;98099.94;4898816;28;102285;-81
2022/05/12 06:05:55;;;;;;;;;2.67;2.67;;;;;21.25;46.42;98088.66;4884725;28;102538;-81
2022/05/12 06:08:23;;;;;;;;;2.67;2.67;;;;;21.25;46.72;98088.66;4890854;28;103557;-81
2022/05/12 06:10:58;;;;;;;;;5.00;4.00;;;;;21.25;46.40;98077.66;4885209;28;102376;-81
2022/05/12 06:13:25;;;;;;;;;2.67;2.67;;;;;21.25;46.42;98085.91;4891511;28;101910;-81
2022/05/12 06:15:52;;;;;;;;;3.33;3.33;;;;;21.25;46.14;98094.16;4880082;28;102633;-81
2022/05/12 06:18:19;;;;;;;;;2.67;2.33;;;;;21.25;46.33;98105.94;4887150;28;104032;-81
2022/05/12 06:20:47;;;;;;;;;2.00;2.00;;;;;21.28;46.81;98115.59;4893369;28;102602;-81
2022/05/12 06:23:14;;;;;;;;;1.67;1.67;;;;;21.26;46.61;98110.34;4891044;28;102350;-80
2022/05/12 06:25:41;;;;;;;;;3.67;3.67;;;;;21.26;46.48;98113.09;4888044;28;102191;-80
2022/05/12 06:28:08;;;;;;;;;4.67;3.33;;;;;21.26;46.59;98118.59;4889632;28;103844;-81
2022/05/12 06:30:35;;;;;;;;;3.00;3.00;;;;;21.27;46.46;98114.75;4882253;28;102146;-81
2022/05/12 06:33:05;;;;;;;;;3.67;3.00;;;;;21.27;46.43;98119.44;4881824;28;102134;-81
2022/05/12 06:35:32;;;;;;;;;2.33;2.33;;;;;21.27;46.34;98120.25;4889260;28;106357;-81
2022/05/12 06:37:59;;;;;;;;;3.00;3.00;;;;;21.28;46.34;98110.91;4883143;28;104240;-81
2022/05/12 06:40:26;;;;;;;;;4.00;3.00;;;;;21.30;46.31;98107.84;4886349;28;102318;-81
2022/05/12 06:42:54;;;;;;;;;2.00;2.00;;;;;21.29;46.75;98096.06;4886627;28;102078;-81
2022/05/12 06:45:21;;;;;;;;;2.67;2.67;;;;;21.29;46.49;98089.72;4888149;28;102297;-81
2022/05/12 06:47:50;;;;;;;;;2.67;2.67;;;;;21.29;46.62;98090.56;4904204;28;103977;-81
2022/05/12 06:50:20;;;;;;;;;3.00;3.00;;;;;21.29;46.34;98079.56;4889965;28;102351;-81
2022/05/12 06:52:47;;;;;;;;;3.00;3.00;;;;;21.30;46.39;98083.09;4882837;28;107756;-81
2022/05/12 06:55:14;;;;;;;;;2.67;2.67;;;;;21.30;46.94;98081.19;4881274;28;102747;-81
2022/05/12 06:57:42;;;;;;;;;3.33;3.33;;;;;21.32;46.60;98084.47;4880715;28;103356;-80
2022/05/12 07:00:10;;;;;;;;;3.00;3.00;;;;;21.31;46.82;98082.00;4890055;28;102128;-81
2022/05/12 07:02:38;;;;;;;;;2.00;2.00;;;;;21.31;46.94;98071.00;4879791;28;102563;-81
2022/05/12 07:05:06;;;;;;;;;2.67;2.67;;;;;21.34;46.31;98081.47;4886867;28;102549;-81
2022/05/12 07:07:34;;;;;;;;;3.33;3.00;;;;;21.34;46.48;98085.00;4887680;28;104064;-81
2022/05/12 07:10:01;;;;;;;;;2.33;2.33;;;;;21.36;46.50;98087.47;4888587;28;101892;-81
2022/05/12 07:12:28;;;;;;;;;4.00;3.33;;;;;21.35;46.72;98089.41;4886521;28;102994;-81
2022/05/12 07:14:56;;;;;;;;;3.33;3.00;;;;;21.38;46.45;98092.72;4888120;28;102480;-81
2022/05/12 07:17:23;;;;;;;;;3.67;3.67;;;;;21.39;46.83;98094.38;4890443;28;104309;-81
2022/05/12 07:19:50;;;;;;;;;1.67;1.67;;;;;21.39;46.76;98100.66;4892251;28;102193;-80
2022/05/12 07:27:49;;;;;;;;;2.33;2.33;;;;;21.41;46.52;98120.47;4882233;28;108616;-81
2022/05/12 07:30:16;;;;;;;;;2.33;1.67;;;;;21.42;46.72;98113.03;4882276;28;102488;-81
2022/05/12 07:32:43;;;;;;;;;2.00;2.00;;;;;21.42;46.64;98121.28;4889262;28;102047;-80
2022/05/12 07:35:11;;;;;;;;;3.33;2.67;;;;;21.42;46.58;98127.63;4897991;28;102224;-82
2022/05/12 07:37:38;;;;;;;;;2.67;2.67;;;;;21.42;46.48;98111.13;4893930;28;109957;-81
2022/05/12 07:40:06;;;;;;;;;3.00;2.00;;;;;21.44;46.62;98130.06;4886148;28;102597;-81
2022/05/12 07:42:33;;;;;;;;;2.67;2.67;;;;;21.44;46.37;98125.41;4889257;28;102126;-81
2022/05/12 07:45:00;;;;;;;;;3.33;3.33;;;;;21.45;46.55;98120.72;4890827;28;102359;-81
2022/05/12 07:47:28;;;;;;;;;2.33;2.00;;;;;21.45;46.78;98121.53;4882075;28;108018;-81
2022/05/12 07:49:55;;;;;;;;;2.00;2.00;;;;;21.45;46.85;98126.22;4883875;28;102452;-81
2022/05/12 07:52:22;;;;;;;;;3.00;3.00;;;;;21.46;46.73;98111.38;4872244;28;102220;-81
2022/05/12 07:54:49;;;;;;;;;3.00;2.67;;;;;21.46;46.69;98122.38;4886249;28;102167;-81
2022/05/12 07:57:17;;;;;;;;;2.33;2.33;;;;;21.46;46.72;98131.44;4884259;28;104309;-81
2022/05/12 07:59:45;;;;;;;;;2.67;2.67;;;;;21.46;47.08;98134.19;4888102;28;102145;-80
2022/05/12 08:02:16;;;;;;;;;5.00;4.00;;;;;21.49;46.37;98127.31;4885372;28;102425;-81
2022/05/12 08:04:44;;;;;;;;;2.67;2.67;;;;;21.48;46.51;98142.97;4891350;28;102472;-80
2022/05/12 08:07:11;;;;;;;;;3.00;3.00;;;;;21.49;46.75;98127.31;4894355;28;103401;-81
2022/05/12 08:09:42;;;;;;;;;2.00;2.00;;;;;21.49;47.01;98141.06;4887547;28;102006;-82
2022/05/12 08:12:09;;;;;;;;;2.33;2.33;;;;;21.50;46.87;98134.47;4894045;28;102634;-81
2022/05/12 08:14:36;;;;;;;;;3.00;2.00;;;;;21.50;46.32;98129.78;4885685;28;102229;-81
2022/05/12 08:17:03;;;;;;;;;2.33;2.33;;;;;21.51;46.20;98130.59;4892003;28;104080;-81
2022/05/12 08:19:32;;;;;;;;;3.00;3.00;;;;;21.51;46.34;98114.09;4881365;28;102358;-81
2022/05/12 08:22:05;;;;;;;;;1.67;1.67;;;;;21.52;46.82;98118.50;4889180;28;102154;-81
2022/05/12 08:24:32;;;;;;;;;0.00;0.00;;;;;21.50;46.72;98124.28;4887551;28;102454;-81
2022/05/12 08:26:59;;;;;;;;;2.00;2.00;;;;;21.52;46.61;98119.31;4881814;28;104119;-81
2022/05/12 08:29:26;;;;;;;;;1.33;1.33;;;;;21.52;46.78;98121.25;4892365;28;102565;-81
2022/05/12 08:31:53;;;;;;;;;4.00;4.00;;;;;21.53;46.58;98125.63;4887403;28;103374;-81
2022/05/12 08:34:21;;;;;;;;;3.00;3.00;;;;;21.52;46.41;98119.31;4881231;28;103188;-81
2022/05/12 08:36:49;;;;;;;;;2.67;2.67;;;;;21.53;46.57;98125.63;4874941;28;104102;-81
2022/05/12 08:39:17;;;;;;;;;3.00;3.00;;;;;21.52;46.34;98124.00;4887064;28;102909;-81
2022/05/12 08:41:59;;;;;;;;;2.00;2.00;;;;;21.55;46.74;98123.44;4890233;28;102258;-79
2022/05/12 08:44:26;;;;;;;;;2.00;2.00;;;;;21.55;46.53;98126.19;4893084;28;102109;-81
2022/05/12 08:46:57;;;;;;;;;2.00;2.00;;;;;21.56;46.80;98128.66;4895025;28;104090;-81
2022/05/12 08:49:38;;;;;;;;;2.33;2.33;;;;;21.56;46.38;98125.91;4892959;28;105143;-81
2022/05/12 08:52:28;;;;;;;;;3.00;2.67;;;;;21.56;46.23;98131.41;4882869;28;102252;-81
2022/05/12 08:55:15;;;;;;;;;2.67;2.67;;;;;21.58;46.39;98133.84;4877325;28;103168;-81
2022/05/12 08:57:50;;;;;;;;;3.00;3.00;;;;;21.58;46.56;98136.59;4883734;28;108629;-81
2022/05/12 09:00:18;;;;;;;;;1.67;1.67;;;;;21.59;46.64;98138.25;4871528;28;102448;-81
2022/05/12 09:02:56;;;;;;;;;2.67;2.67;;;;;21.59;46.65;98133.59;4896785;28;102208;-81
2022/05/12 09:05:29;;;;;;;;;2.00;2.00;;;;;21.60;46.37;98134.41;4887017;28;102252;-81
2022/05/12 09:08:06;;;;;;;;;2.33;2.00;;;;;21.61;46.96;98147.06;4887552;28;104070;-81
2022/05/12 09:10:42;;;;;;;;;3.67;3.00;;;;;21.60;46.75;98134.41;4885540;28;102079;-81
2022/05/12 09:13:19;;;;;;;;;2.33;2.00;;;;;21.61;46.48;98145.16;4888750;28;102574;-81
2022/05/12 09:16:22;;;;;;;;;2.33;2.33;;;;;21.63;46.54;98142.09;4867959;28;102523;-80
2022/05/12 09:18:50;;;;;;;;;2.33;2.33;;;;;21.63;46.26;98144.84;4878986;28;108978;-81
2022/05/12 09:21:25;;;;;;;;;2.00;2.00;;;;;21.62;46.39;98144.00;4892222;28;102944;-81
2022/05/12 09:23:52;;;;;;;;;1.67;1.67;;;;;21.64;46.61;98146.50;4896968;28;102164;-81
2022/05/12 09:26:49;;;;;;;;;3.00;2.00;;;;;21.63;46.86;98139.34;4888553;28;102513;-81
2022/05/12 09:29:27;;;;;;;;;2.67;2.67;;;;;21.63;46.54;98144.84;4879153;28;108913;-79
2022/05/12 09:31:56;;;;;;;;;3.00;3.00;;;;;21.63;46.19;98142.91;4887125;28;102088;-81
2022/05/12 09:34:34;;;;;;;;;1.33;1.33;;;;;21.64;46.57;98143.75;4891467;28;102232;-81
2022/05/12 09:37:18;;;;;;;;;2.67;2.67;;;;;21.66;46.16;98147.00;4885113;28;102551;-81
2022/05/12 09:39:45;;;;;;;;;2.33;2.00;;;;;;;;4891777;28;108809;-81
2022/05/12 09:42:32;;;;;;;;;1.67;1.67;;;;;21.68;46.71;98156.66;4893210;28;102168;-81
2022/05/12 09:45:02;;;;;;;;;2.33;2.33;;;;;21.69;46.26;98146.47;4897427;28;102011;-81
2022/05/12 09:47:30;;;;;;;;;1.67;1.67;;;;;21.69;46.55;98151.97;4884484;28;102540;-81
2022/05/12 09:50:18;;;;;;;;;2.00;2.00;;;;;21.71;46.40;98152.50;4880372;28;104217;-81
2022/05/12 09:52:56;;;;;;;;;1.67;1.67;;;;;21.70;46.31;98157.16;4887422;28;102223;-81
2022/05/12 09:55:30;;;;;;;;;2.00;2.00;;;;;21.71;46.37;98158.81;4879452;28;102302;-81
2022/05/12 09:58:24;;;;;;;;;3.00;2.67;;;;;21.72;46.51;98165.16;4879653;28;102311;-81
2022/05/12 10:01:15;;;;;;;;;2.33;2.33;;;;;21.74;46.61;98174.78;4875741;28;108997;-81
2022/05/12 10:09:21;;;;;;;;;2.33;2.33;;;;;21.76;46.83;98167.06;4892472;28;102208;-81
2022/05/12 10:12:10;;;;;;;;;2.00;2.00;;;;;21.76;46.67;98177.25;4868476;28;108971;-80
2022/05/12 10:15:22;;;;;;;;;2.00;2.00;;;;;21.77;46.42;98184.41;4883199;28;105054;-81
2022/05/12 10:17:54;;;;;;;;;2.67;2.67;;;;;21.78;46.05;98175.03;4875353;28;102301;-80
2022/05/12 10:20:23;;;;;;;;;2.00;2.00;;;;;21.79;46.40;98171.19;4880301;28;102514;-81
2022/05/12 10:23:07;;;;;;;;;2.00;2.00;;;;;21.79;46.29;98174.72;4891980;28;104101;-80
2022/05/12 10:25:58;;;;;;;;;2.00;2.00;;;;;21.80;46.13;98176.38;4881738;28;102536;-81
2022/05/12 10:28:44;;;;;;;;;2.00;2.00;;;;;21.80;46.36;98184.66;4884321;28;102348;-81
2022/05/12 10:31:23;;;;;;;;;2.00;2.00;;;;;21.81;46.13;98179.97;4890627;28;102638;-81
2022/05/12 10:36:47;;;;;;;;;1.67;1.67;;;;;21.83;46.18;98174.19;5278593;23;102419;-81
2022/05/12 10:39:35;;;;;;;;;1.67;1.67;;;;;21.83;46.35;98175.00;4876195;28;102201;-81
2022/05/12 10:42:21;;;;;;;;;2.00;2.00;;;;;21.85;46.19;98169.22;4864442;28;102301;-81
2022/05/12 10:45:26;;;;;;;;;2.00;2.00;;;;;21.87;46.62;98169.75;4877731;28;108751;-78
2022/05/12 10:48:15;;;;;;;;;1.00;1.00;;;;;21.88;46.72;98176.91;4878141;28;102120;-80
2022/05/12 10:50:57;;;;;;;;;1.33;1.33;;;;;21.88;46.91;98155.72;4874504;28;102265;-81
2022/05/12 10:53:50;;;;;;;;;3.00;3.00;;;;;21.89;46.07;98173.03;4877982;28;102257;-81
2022/05/12 10:56:29;;;;;;;;;1.33;1.33;;;;;21.90;46.21;98177.44;4875089;28;108757;-81
2022/05/12 10:59:26;;;;;;;;;2.33;2.00;;;;;21.89;46.54;98179.38;4873964;28;102066;-81
2022/05/12 11:01:57;;;;;;;;;1.67;1.67;;;;;21.91;46.10;98182.66;4830130;28;102198;-81
2022/05/12 11:04:35;;;;;;;;;2.00;2.00;;;;;21.92;46.64;98181.56;4851908;28;102331;-81
2022/05/12 11:07:11;;;;;;;;;1.67;1.67;;;;;21.93;46.42;98193.44;4865399;28;104055;-81
2022/05/12 11:09:45;;;;;;;;;2.00;2.00;;;;;21.93;46.35;98187.94;4863443;28;102140;-81
2022/05/12 11:12:39;;;;;;;;;2.33;1.33;;;;;21.95;46.32;98197.53;4841654;28;102127;-81
2022/05/12 11:15:21;;;;;;;;;2.33;2.00;;;;;21.96;46.07;98188.19;4877104;28;102244;-81
2022/05/12 11:18:05;;;;;;;;;1.00;1.00;;;;;21.98;46.29;98188.69;4875657;28;108809;-79
2022/05/12 11:20:43;;;;;;;;;1.67;1.67;;;;;21.97;45.91;98195.34;4856154;28;102862;-81
2022/05/12 11:23:26;;;;;;;;;2.00;2.00;;;;;22.01;45.76;98198.34;4852538;28;102528;-81
2022/05/12 11:26:07;;;;;;;;;2.33;2.33;;;;;22.01;46.05;98190.91;4864459;28;102723;-80
2022/05/12 11:31:57;;;;;;;;;2.00;2.00;;;;;22.02;46.45;98194.50;4858615;28;103377;-81
2022/05/12 11:34:24;;;;;;;;;1.33;1.33;;;;;22.02;46.16;98203.53;4879600;28;102381;-81
2022/05/12 11:36:53;;;;;;;;;1.67;1.67;;;;;22.04;46.24;98200.50;4835789;28;102274;-81
2022/05/12 11:39:25;;;;;;;;;1.00;1.00;;;;;22.04;46.02;98198.59;4863480;28;104317;-81
2022/05/12 11:42:17;;;;;;;;;2.00;2.00;;;;;22.04;46.23;98201.34;4855474;28;102678;-81
2022/05/12 11:45:05;;;;;;;;;2.67;2.33;;;;;22.06;46.49;98201.06;4859942;28;105120;-81
2022/05/12 11:48:11;;;;;;;;;1.00;1.00;;;;;22.08;46.21;98205.16;4860927;28;102182;-81
2022/05/12 11:50:45;;;;;;;;;2.67;2.00;;;;;22.09;45.78;98206.81;4845495;28;108832;-81
2022/05/12 11:53:17;;;;;;;;;1.00;1.00;;;;;22.09;46.45;98217.84;4844808;28;102129;-81
2022/05/12 11:55:54;;;;;;;;;1.67;1.67;;;;;22.10;46.04;98216.72;4841229;28;111796;-81
2022/05/12 11:58:42;;;;;;;;;2.33;2.33;;;;;22.11;46.25;98221.09;4859809;28;102208;-80
2022/05/12 12:01:12;;;;;;;;;1.67;1.67;;;;;22.12;46.06;98219.19;4840773;28;104015;-81
2022/05/12 12:03:57;;;;;;;;;1.67;1.67;;;;;22.13;46.13;98227.16;4857531;28;102120;-80
2022/05/12 12:06:48;;;;;;;;;1.00;1.00;;;;;22.15;45.77;98224.94;4850599;28;110021;-81
2022/05/12 12:09:37;;;;;;;;;2.67;1.67;;;;;22.16;45.78;98221.09;4859641;28;102391;-81